Time;durP1;ratioP1;P1;durP2;ratioP2;P2;SDS_P1;SDS_P2;PMS_P1;PMS_P2;Temp;Humidity;BMP_temperature;BMP_pressure;BME280_temperature;BME280_humidity;BME280_pressure;Samples;Min_cycle;Max_cycle;Signal;HPM_P1;HPM_P2
2023/07/05 00:01:23;;;;;;;;;;;17.80;82.90;;;;;;4982257;28;19918;-92
2023/07/05 00:03:49;;;;;;;;;;;17.80;82.00;;;;;;4989357;28;19913;-92
2023/07/05 00:06:14;;;;;;;;;;;17.80;82.30;;;;;;4989007;28;19998;-92
2023/07/05 00:08:41;;;;;;;;;;;18.10;80.80;;;;;;4993396;28;19918;-91
2023/07/05 00:11:07;;;;;;;;;;;18.10;81.20;;;;;;4992334;28;19995;-92
2023/07/05 00:13:33;;;;;;;;;;;18.00;81.40;;;;;;4993103;28;19920;-91
2023/07/05 00:15:59;;;;;;;;;;;18.00;81.50;;;;;;4982126;28;19914;-92
2023/07/05 00:18:28;;;;;;;;;;;18.00;81.20;;;;;;4993252;28;19913;-92
2023/07/05 00:20:58;;;;;;;;;;;18.00;82.00;;;;;;4990389;28;20278;-92
2023/07/05 00:23:24;;;;;;;;;;;18.00;82.30;;;;;;4991343;28;19925;-93
2023/07/05 00:25:50;;;;;;;;;;;18.00;82.70;;;;;;4990212;28;20628;-94
2023/07/05 00:28:15;;;;;;;;;;;18.10;83.10;;;;;;5005345;28;20013;-93
2023/07/05 00:30:41;;;;;;;;;;;18.00;82.60;;;;;;4988997;28;20033;-93
2023/07/05 00:33:07;;;;;;;;;;;18.00;82.50;;;;;;4991646;28;19914;-92
2023/07/05 00:35:35;;;;;;;;;;;18.10;82.80;;;;;;4990215;28;19918;-93
2023/07/05 00:38:00;;;;;;;;;;;18.10;83.20;;;;;;4988686;28;19917;-92
2023/07/05 00:40:25;;;;;;;;;;;18.10;82.80;;;;;;4991099;28;20009;-93
2023/07/05 00:42:51;;;;;;;;;;;18.10;82.90;;;;;;4990564;28;19917;-93
2023/07/05 00:45:20;;;;;;;;;;;18.20;82.60;;;;;;4990237;28;20176;-92
2023/07/05 00:47:46;;;;;;;;;;;18.10;82.90;;;;;;5005945;28;19918;-92
2023/07/05 00:50:19;;;;;;;;;;;18.10;82.50;;;;;;4988736;28;19929;-93
2023/07/05 00:52:44;;;;;;;;;;;18.10;83.40;;;;;;4990821;28;19918;-92
2023/07/05 00:55:10;;;;;;;;;;;18.10;83.30;;;;;;4987282;28;20424;-93
2023/07/05 00:57:36;;;;;;;;;;;18.10;84.20;;;;;;4990371;28;19914;-92
2023/07/05 01:00:06;;;;;;;;;;;18.10;85.50;;;;;;4990934;28;19918;-93
2023/07/05 01:02:56;;;;;;;;;;;18.00;85.60;;;;;;4988662;28;20391;-93
2023/07/05 01:05:23;;;;;;;;;;;18.00;86.60;;;;;;4987222;28;19914;-93
2023/07/05 01:07:49;;;;;;;;;;;17.90;86.80;;;;;;4996273;28;20002;-93
2023/07/05 01:10:16;;;;;;;;;;;17.90;87.40;;;;;;4987700;28;19921;-94
2023/07/05 01:13:06;;;;;;;;;;;17.80;87.70;;;;;;5000868;28;19914;-93
2023/07/05 01:15:36;;;;;;;;;;;17.90;87.20;;;;;;5005049;28;20034;-93
2023/07/05 01:18:09;;;;;;;;;;;17.90;87.40;;;;;;4993919;28;19918;-93
2023/07/05 01:20:46;;;;;;;;;;;17.90;87.40;;;;;;4990605;28;20432;-93
2023/07/05 01:23:15;;;;;;;;;;;17.80;88.00;;;;;;4976502;28;19919;-93
2023/07/05 01:25:43;;;;;;;;;;;17.90;88.20;;;;;;5006327;28;19910;-93
2023/07/05 01:28:26;;;;;;;;;;;17.80;88.20;;;;;;5006727;28;19932;-93
2023/07/05 01:31:03;;;;;;;;;;;17.80;88.00;;;;;;4983831;28;20464;-92
2023/07/05 01:33:43;;;;;;;;;;;17.90;88.30;;;;;;4990427;28;19930;-93
2023/07/05 01:36:09;;;;;;;;;;;17.90;87.60;;;;;;4988829;28;19921;-93
2023/07/05 01:38:35;;;;;;;;;;;17.80;88.00;;;;;;4991665;28;19910;-93
2023/07/05 01:41:03;;;;;;;;;;;17.80;88.50;;;;;;4991983;28;20298;-93
2023/07/05 01:43:29;;;;;;;;;;;17.90;87.10;;;;;;4990481;28;19910;-93
2023/07/05 01:46:19;;;;;;;;;;;17.70;87.60;;;;;;4991044;28;19910;-93
2023/07/05 01:48:58;;;;;;;;;;;17.60;87.90;;;;;;4991692;28;19922;-93
2023/07/05 01:51:30;;;;;;;;;;;17.90;87.50;;;;;;4982154;28;20332;-92
2023/07/05 01:54:01;;;;;;;;;;;17.90;87.40;;;;;;5006395;28;19914;-93
2023/07/05 01:56:36;;;;;;;;;;;17.80;88.00;;;;;;4989042;28;19921;-92
2023/07/05 01:59:04;;;;;;;;;;;17.70;88.20;;;;;;4991048;28;20321;-92
2023/07/05 02:01:30;;;;;;;;;;;17.80;87.80;;;;;;4988605;28;19914;-93
2023/07/05 02:04:06;;;;;;;;;;;17.70;88.10;;;;;;4993237;28;19971;-93
2023/07/05 02:06:33;;;;;;;;;;;17.70;88.00;;;;;;4985948;28;19926;-93
2023/07/05 02:08:59;;;;;;;;;;;17.80;88.00;;;;;;4986763;28;19914;-93
2023/07/05 02:11:24;;;;;;;;;;;17.80;87.40;;;;;;4994781;28;20009;-92
2023/07/05 02:13:50;;;;;;;;;;;17.60;88.20;;;;;;4991209;28;19980;-93
2023/07/05 02:16:17;;;;;;;;;;;17.60;88.30;;;;;;4987736;28;19922;-93
2023/07/05 02:18:43;;;;;;;;;;;17.70;87.80;;;;;;5001646;28;19908;-94
2023/07/05 02:21:09;;;;;;;;;;;17.80;87.80;;;;;;5011332;28;19913;-93
2023/07/05 02:23:37;;;;;;;;;;;17.70;87.60;;;;;;5011955;28;19901;-94
2023/07/05 02:26:04;;;;;;;;;;;17.70;87.80;;;;;;5008667;28;19985;-93
2023/07/05 02:28:30;;;;;;;;;;;17.60;87.60;;;;;;4993134;28;20054;-93
2023/07/05 02:30:56;;;;;;;;;;;17.70;88.00;;;;;;4989034;28;19921;-93
2023/07/05 02:33:21;;;;;;;;;;;17.60;87.60;;;;;;4989102;28;19917;-93
2023/07/05 02:35:48;;;;;;;;;;;17.60;87.70;;;;;;4985455;28;19920;-93
2023/07/05 02:38:13;;;;;;;;;;;17.60;88.10;;;;;;4999492;28;19967;-93
2023/07/05 02:40:39;;;;;;;;;;;17.70;88.00;;;;;;5000662;28;19916;-93
2023/07/05 02:43:04;;;;;;;;;;;17.60;87.80;;;;;;4990867;28;19910;-93
2023/07/05 02:45:31;;;;;;;;;;;17.70;87.60;;;;;;4989707;28;19962;-93
2023/07/05 02:47:57;;;;;;;;;;;17.70;87.90;;;;;;4995096;28;19944;-93
2023/07/05 02:50:22;;;;;;;;;;;17.60;88.00;;;;;;4988656;28;19914;-93
2023/07/05 02:52:48;;;;;;;;;;;17.60;88.20;;;;;;4973867;28;19917;-93
2023/07/05 02:55:13;;;;;;;;;;;17.60;88.50;;;;;;4969923;28;19914;-93
2023/07/05 02:57:39;;;;;;;;;;;17.70;88.50;;;;;;4987976;28;20026;-93
2023/07/05 03:00:06;;;;;;;;;;;17.70;88.10;;;;;;4989489;28;19966;-94
2023/07/05 03:02:32;;;;;;;;;;;17.60;88.40;;;;;;4997420;28;19948;-93
2023/07/05 03:04:57;;;;;;;;;;;17.80;88.20;;;;;;4988523;28;19914;-93
2023/07/05 03:07:23;;;;;;;;;;;17.70;88.70;;;;;;4989108;28;20295;-92
2023/07/05 03:09:48;;;;;;;;;;;17.70;89.00;;;;;;4988178;28;19915;-91
2023/07/05 03:12:14;;;;;;;;;;;17.60;89.10;;;;;;4990854;28;20237;-92
2023/07/05 03:14:40;;;;;;;;;;;17.60;89.40;;;;;;4991596;28;19914;-93
2023/07/05 03:17:05;;;;;;;;;;;17.60;89.30;;;;;;4988332;28;19918;-93
2023/07/05 03:19:31;;;;;;;;;;;17.50;89.40;;;;;;4987825;28;20008;-93
2023/07/05 03:21:56;;;;;;;;;;;17.60;89.40;;;;;;4988100;28;20024;-93
2023/07/05 03:24:22;;;;;;;;;;;17.60;89.60;;;;;;4987796;28;19917;-94
2023/07/05 03:26:50;;;;;;;;;;;17.50;89.70;;;;;;4987350;28;20390;-93
2023/07/05 03:29:15;;;;;;;;;;;17.50;89.90;;;;;;4986381;28;19930;-94
2023/07/05 03:31:41;;;;;;;;;;;17.50;90.20;;;;;;4991093;28;19914;-93
2023/07/05 03:34:07;;;;;;;;;;;17.50;89.90;;;;;;4982619;28;19922;-93
2023/07/05 03:36:33;;;;;;;;;;;17.50;89.90;;;;;;4989926;28;19917;-93
2023/07/05 03:38:58;;;;;;;;;;;17.50;89.90;;;;;;4988722;28;19914;-93
2023/07/05 03:41:24;;;;;;;;;;;17.50;89.90;;;;;;4989977;28;19921;-93
2023/07/05 03:43:54;;;;;;;;;;;17.60;89.90;;;;;;4990925;28;19955;-92
2023/07/05 03:46:20;;;;;;;;;;;17.50;89.90;;;;;;4989003;28;19914;-93
2023/07/05 03:48:45;;;;;;;;;;;17.60;89.70;;;;;;4989376;28;20391;-91
2023/07/05 03:51:16;;;;;;;;;;;17.50;89.90;;;;;;4990762;28;20455;-91
2023/07/05 03:53:42;;;;;;;;;;;17.60;89.70;;;;;;4989729;28;19918;-90
2023/07/05 03:56:09;;;;;;;;;;;17.50;89.50;;;;;;4989695;28;19921;-91
2023/07/05 03:58:35;;;;;;;;;;;17.50;88.80;;;;;;4989727;28;19922;-91
2023/07/05 04:01:04;;;;;;;;;;;17.50;88.30;;;;;;4991004;28;19910;-91
2023/07/05 04:03:30;;;;;;;;;;;17.50;88.50;;;;;;5066229;22;19972;-82
2023/07/05 04:05:56;;;;;;;;;;;17.50;88.10;;;;;;5061965;28;20020;-82
2023/07/05 04:08:21;;;;;;;;;;;17.40;87.10;;;;;;5073916;28;19924;-82
2023/07/05 04:10:47;;;;;;;;;;;17.30;84.50;;;;;;5073691;28;19920;-82
2023/07/05 04:13:13;;;;;;;;;;;17.00;82.90;;;;;;5076572;28;20382;-82
2023/07/05 04:15:38;;;;;;;;;;;16.80;81.70;;;;;;5073808;28;20006;-82
2023/07/05 04:18:03;;;;;;;;;;;16.50;81.30;;;;;;5082084;28;19916;-84
2023/07/05 04:20:31;;;;;;;;;;;16.30;80.20;;;;;;5094113;28;19912;-82
2023/07/05 04:22:57;;;;;;;;;;;16.10;81.60;;;;;;5080219;28;19916;-82
2023/07/05 04:25:23;;;;;;;;;;;15.90;82.10;;;;;;5072017;28;19916;-82
2023/07/05 04:27:48;;;;;;;;;;;15.70;81.90;;;;;;5073674;28;19920;-81
2023/07/05 04:30:14;;;;;;;;;;;15.70;82.00;;;;;;5070236;28;19935;-83
2023/07/05 04:32:39;;;;;;;;;;;15.70;81.50;;;;;;5054782;28;19916;-82
2023/07/05 04:35:05;;;;;;;;;;;15.60;81.70;;;;;;5072877;28;19915;-82
2023/07/05 04:37:30;;;;;;;;;;;15.60;82.30;;;;;;5072925;28;19908;-81
2023/07/05 04:39:56;;;;;;;;;;;15.50;82.10;;;;;;5071633;28;19915;-82
2023/07/05 04:42:21;;;;;;;;;;;15.50;82.90;;;;;;5051527;28;20294;-83
2023/07/05 04:44:47;;;;;;;;;;;15.40;82.20;;;;;;5069998;28;19970;-82
2023/07/05 04:47:12;;;;;;;;;;;15.30;82.20;;;;;;5073957;28;19913;-83
2023/07/05 04:49:38;;;;;;;;;;;15.30;82.30;;;;;;5075444;28;20386;-82
2023/07/05 04:52:03;;;;;;;;;;;15.30;81.90;;;;;;5073368;28;20252;-83
2023/07/05 04:54:29;;;;;;;;;;;15.20;81.70;;;;;;5065704;28;19909;-83
2023/07/05 04:56:55;;;;;;;;;;;15.20;81.80;;;;;;5073426;28;19927;-82
2023/07/05 04:59:21;;;;;;;;;;;15.20;80.90;;;;;;5069682;28;19998;-83
2023/07/05 05:01:47;;;;;;;;;;;15.10;81.30;;;;;;5073584;28;20133;-81
2023/07/05 05:04:13;;;;;;;;;;;15.10;81.30;;;;;;5071889;28;20378;-81
2023/07/05 05:06:38;;;;;;;;;;;15.10;81.10;;;;;;5059528;28;19912;-83
2023/07/05 05:09:04;;;;;;;;;;;15.10;80.80;;;;;;5057603;28;19999;-83
2023/07/05 05:11:29;;;;;;;;;;;15.10;81.10;;;;;;5082775;28;19912;-84
2023/07/05 05:13:54;;;;;;;;;;;15.00;80.80;;;;;;5079553;28;19931;-82
2023/07/05 05:16:20;;;;;;;;;;;15.00;80.20;;;;;;5075126;28;19909;-83
2023/07/05 05:18:45;;;;;;;;;;;15.10;80.60;;;;;;5080135;28;19912;-82
2023/07/05 05:21:11;;;;;;;;;;;15.10;80.50;;;;;;5073429;28;19920;-82
2023/07/05 05:23:36;;;;;;;;;;;15.20;79.80;;;;;;5058135;28;20335;-83
2023/07/05 05:26:02;;;;;;;;;;;15.10;78.90;;;;;;5052201;28;19913;-85
2023/07/05 05:28:29;;;;;;;;;;;15.10;78.80;;;;;;5062046;28;19921;-82
2023/07/05 05:31:02;;;;;;;;;;;15.10;78.00;;;;;;5073200;28;19974;-84
2023/07/05 05:33:27;;;;;;;;;;;15.20;77.30;;;;;;5072438;28;19913;-83
2023/07/05 05:35:53;;;;;;;;;;;15.20;77.60;;;;;;5070310;28;20444;-83
2023/07/05 05:38:19;;;;;;;;;;;15.30;77.70;;;;;;5071653;28;20062;-83
2023/07/05 05:40:45;;;;;;;;;;;15.50;77.10;;;;;;5070603;28;19912;-83
2023/07/05 05:43:10;;;;;;;;;;;15.60;76.60;;;;;;5071858;28;19908;-82
2023/07/05 05:45:36;;;;;;;;;;;15.70;75.70;;;;;;5074068;28;19915;-83
2023/07/05 05:48:01;;;;;;;;;;;15.70;75.90;;;;;;5076316;28;20345;-84
2023/07/05 05:50:27;;;;;;;;;;;15.80;75.50;;;;;;5072022;28;19950;-82
2023/07/05 05:52:52;;;;;;;;;;;16.00;75.80;;;;;;5073927;28;19954;-82
2023/07/05 05:55:19;;;;;;;;;;;16.00;74.10;;;;;;5073614;28;20003;-83
2023/07/05 05:57:44;;;;;;;;;;;15.90;74.60;;;;;;5074287;28;19913;-82
2023/07/05 06:00:10;;;;;;;;;;;15.90;75.10;;;;;;5070133;28;19912;-83
2023/07/05 06:02:36;;;;;;;;;;;15.90;74.60;;;;;;5071785;28;19916;-83
2023/07/05 06:05:03;;;;;;;;;;;15.80;75.60;;;;;;5064997;28;19917;-82
2023/07/05 06:07:28;;;;;;;;;;;15.80;75.00;;;;;;5073495;28;20477;-84
2023/07/05 06:09:54;;;;;;;;;;;15.70;75.50;;;;;;5071142;28;19920;-83
2023/07/05 06:12:20;;;;;;;;;;;15.80;75.60;;;;;;5074844;28;20366;-83
2023/07/05 06:14:45;;;;;;;;;;;15.80;75.70;;;;;;5072112;28;19909;-82
2023/07/05 06:17:11;;;;;;;;;;;15.90;74.40;;;;;;5068409;28;20051;-81
2023/07/05 06:19:37;;;;;;;;;;;15.80;75.40;;;;;;5073581;28;19908;-86
2023/07/05 06:22:02;;;;;;;;;;;15.70;74.10;;;;;;5073950;28;20035;-81
2023/07/05 06:24:28;;;;;;;;;;;15.80;74.40;;;;;;5073135;28;19909;-82
2023/07/05 06:26:53;;;;;;;;;;;15.90;72.90;;;;;;5074417;28;19943;-83
2023/07/05 06:29:19;;;;;;;;;;;15.80;72.50;;;;;;5075766;28;19919;-83
2023/07/05 06:31:44;;;;;;;;;;;15.70;72.90;;;;;;5058873;28;19920;-82
2023/07/05 06:34:10;;;;;;;;;;;15.90;71.90;;;;;;5077652;28;21071;-81
2023/07/05 06:36:35;;;;;;;;;;;16.00;70.50;;;;;;5074940;28;19909;-83
2023/07/05 06:39:02;;;;;;;;;;;16.00;70.60;;;;;;5074385;28;19915;-82
2023/07/05 06:41:28;;;;;;;;;;;16.00;70.10;;;;;;5074713;28;20011;-82
2023/07/05 06:43:53;;;;;;;;;;;16.10;70.30;;;;;;5088342;28;19955;-83
2023/07/05 06:46:19;;;;;;;;;;;16.00;69.50;;;;;;5073549;28;19912;-81
2023/07/05 06:48:45;;;;;;;;;;;16.00;69.60;;;;;;5076551;28;20011;-82
2023/07/05 06:51:10;;;;;;;;;;;16.00;70.30;;;;;;5070501;28;19923;-84
2023/07/05 06:53:36;;;;;;;;;;;16.10;70.40;;;;;;5072548;28;19916;-81
2023/07/05 06:56:01;;;;;;;;;;;16.00;70.10;;;;;;5070391;28;19951;-82
2023/07/05 06:58:27;;;;;;;;;;;15.90;70.40;;;;;;5071984;28;19916;-82
2023/07/05 07:00:52;;;;;;;;;;;15.80;70.40;;;;;;5069265;28;19965;-83
2023/07/05 07:03:18;;;;;;;;;;;15.90;70.40;;;;;;5071085;28;19970;-81
2023/07/05 07:05:53;;;;;;;;;;;16.10;68.50;;;;;;5060076;28;19913;-82
2023/07/05 07:08:20;;;;;;;;;;;16.20;68.70;;;;;;5072282;28;20280;-82
2023/07/05 07:10:46;;;;;;;;;;;16.10;69.50;;;;;;5070722;28;20534;-81
2023/07/05 07:13:12;;;;;;;;;;;16.10;69.80;;;;;;5063904;28;19944;-81
2023/07/05 07:15:38;;;;;;;;;;;16.10;69.60;;;;;;5082056;28;19948;-82
2023/07/05 07:18:03;;;;;;;;;;;16.10;69.40;;;;;;5071859;28;19955;-82
2023/07/05 07:20:28;;;;;;;;;;;16.10;69.10;;;;;;5058656;28;20390;-82
2023/07/05 07:22:54;;;;;;;;;;;16.20;68.60;;;;;;5065995;28;19956;-81
2023/07/05 07:25:19;;;;;;;;;;;16.40;68.60;;;;;;5066449;28;20385;-82
2023/07/05 07:27:45;;;;;;;;;;;16.60;67.00;;;;;;5073530;28;20027;-82
2023/07/05 07:30:11;;;;;;;;;;;16.50;66.80;;;;;;5060538;28;19927;-83
2023/07/05 07:32:36;;;;;;;;;;;16.50;67.50;;;;;;5062242;28;19912;-81
2023/07/05 07:35:02;;;;;;;;;;;16.30;67.60;;;;;;5073908;28;19913;-81
2023/07/05 07:37:30;;;;;;;;;;;16.20;68.00;;;;;;5068073;28;19916;-83
2023/07/05 07:39:55;;;;;;;;;;;16.10;67.60;;;;;;5062891;28;19916;-83
2023/07/05 07:42:21;;;;;;;;;;;16.10;67.20;;;;;;5072718;28;19912;-82
2023/07/05 07:44:46;;;;;;;;;;;16.20;67.80;;;;;;5054804;28;19920;-83
2023/07/05 07:47:12;;;;;;;;;;;16.30;67.50;;;;;;5066286;28;20293;-82
2023/07/05 07:49:37;;;;;;;;;;;16.50;66.90;;;;;;5067557;28;19939;-83
2023/07/05 07:52:03;;;;;;;;;;;16.30;66.90;;;;;;5064207;28;19912;-83
2023/07/05 07:54:31;;;;;;;;;;;16.30;66.90;;;;;;5071093;28;19972;-81
2023/07/05 07:56:57;;;;;;;;;;;16.30;66.70;;;;;;5078154;28;19939;-83
2023/07/05 07:59:23;;;;;;;;;;;16.20;67.50;;;;;;5070711;28;19912;-82
2023/07/05 08:01:49;;;;;;;;;;;16.10;68.10;;;;;;5063544;28;19912;-83
2023/07/05 08:04:15;;;;;;;;;;;16.00;69.80;;;;;;5079844;28;19920;-83
2023/07/05 08:06:40;;;;;;;;;;;15.80;69.70;;;;;;5066255;28;19929;-82
2023/07/05 08:09:07;;;;;;;;;;;15.70;71.40;;;;;;5052875;28;20392;-83
2023/07/05 08:11:33;;;;;;;;;;;15.80;70.20;;;;;;5061371;28;19958;-83
2023/07/05 08:13:58;;;;;;;;;;;15.80;69.20;;;;;;5064442;28;19956;-82
2023/07/05 08:16:24;;;;;;;;;;;15.80;69.10;;;;;;5078032;28;19962;-80
2023/07/05 08:18:50;;;;;;;;;;;15.90;68.00;;;;;;5092108;28;19913;-82
2023/07/05 08:21:16;;;;;;;;;;;15.90;68.00;;;;;;5083744;28;20388;-83
2023/07/05 08:23:42;;;;;;;;;;;16.00;67.50;;;;;;5070050;28;19920;-83
2023/07/05 08:26:07;;;;;;;;;;;16.20;67.60;;;;;;5069771;28;20325;-83
2023/07/05 08:28:33;;;;;;;;;;;16.30;67.10;;;;;;5075361;28;19920;-84
2023/07/05 08:31:00;;;;;;;;;;;16.50;67.90;;;;;;5083124;28;19924;-83
2023/07/05 08:33:27;;;;;;;;;;;16.60;67.30;;;;;;5071900;28;19916;-84
2023/07/05 08:36:09;;;;;;;;;;;16.60;67.80;;;;;;5063892;28;19912;-83
2023/07/05 08:38:38;;;;;;;;;;;16.50;68.60;;;;;;5071136;28;19961;-83
2023/07/05 08:41:09;;;;;;;;;;;16.60;69.40;;;;;;5071927;28;19912;-83
2023/07/05 08:43:37;;;;;;;;;;;16.60;68.80;;;;;;5067834;28;20289;-83
2023/07/05 08:46:05;;;;;;;;;;;16.50;69.00;;;;;;5065193;28;19946;-83
2023/07/05 08:48:32;;;;;;;;;;;16.30;70.10;;;;;;5070700;28;20014;-84
2023/07/05 08:50:58;;;;;;;;;;;16.10;69.60;;;;;;5068363;28;19969;-84
2023/07/05 08:53:23;;;;;;;;;;;16.00;70.40;;;;;;5084945;28;19951;-83
2023/07/05 08:55:55;;;;;;;;;;;15.90;70.60;;;;;;5073498;28;20772;-86
2023/07/05 08:58:25;;;;;;;;;;;15.80;71.20;;;;;;5075990;28;19920;-83
2023/07/05 09:00:58;;;;;;;;;;;15.80;71.90;;;;;;5078395;28;19918;-83
2023/07/05 09:03:28;;;;;;;;;;;15.80;71.50;;;;;;5084072;28;19932;-83
2023/07/05 09:05:54;;;;;;;;;;;15.90;71.10;;;;;;5082515;28;20258;-83
2023/07/05 09:08:19;;;;;;;;;;;15.80;70.40;;;;;;5081384;28;19935;-84
2023/07/05 09:10:53;;;;;;;;;;;15.80;70.10;;;;;;5075345;28;19919;-82
2023/07/05 09:13:22;;;;;;;;;;;15.80;70.20;;;;;;5083534;28;19919;-84
2023/07/05 09:16:04;;;;;;;;;;;15.80;69.30;;;;;;5070224;28;20314;-84
2023/07/05 09:18:48;;;;;;;;;;;15.80;69.40;;;;;;5075415;28;19920;-85
2023/07/05 09:21:32;;;;;;;;;;;15.80;68.90;;;;;;5068758;28;20293;-84
2023/07/05 09:24:07;;;;;;;;;;;15.80;69.30;;;;;;5081712;28;19920;-84
2023/07/05 09:26:41;;;;;;;;;;;15.90;68.90;;;;;;5074229;28;19924;-84
2023/07/05 09:29:13;;;;;;;;;;;16.00;69.20;;;;;;5068350;28;19974;-84
2023/07/05 09:31:39;;;;;;;;;;;16.20;68.60;;;;;;5078786;28;19913;-84
2023/07/05 09:34:22;;;;;;;;;;;16.40;66.50;;;;;;5056328;28;19913;-85
2023/07/05 09:36:48;;;;;;;;;;;16.60;66.50;;;;;;5055294;28;19917;-83
2023/07/05 09:39:23;;;;;;;;;;;16.70;65.50;;;;;;5069232;28;20267;-83
2023/07/05 09:41:50;;;;;;;;;;;16.80;65.30;;;;;;5055610;28;19916;-84
2023/07/05 09:44:17;;;;;;;;;;;17.10;64.90;;;;;;5067288;28;19921;-84
2023/07/05 09:46:43;;;;;;;;;;;17.20;64.40;;;;;;5075260;28;19909;-85
2023/07/05 09:49:12;;;;;;;;;;;17.50;63.70;;;;;;5092547;28;20003;-86
2023/07/05 09:51:41;;;;;;;;;;;17.70;62.00;;;;;;5076350;28;20097;-83
2023/07/05 09:54:13;;;;;;;;;;;17.80;61.00;;;;;;5080316;28;19924;-85
2023/07/05 09:56:58;;;;;;;;;;;18.00;60.80;;;;;;5080886;28;20431;-85
2023/07/05 09:59:24;;;;;;;;;;;18.00;61.30;;;;;;5064431;28;19965;-84
2023/07/05 10:01:54;;;;;;;;;;;18.10;60.80;;;;;;5063294;28;19916;-85
2023/07/05 10:04:24;;;;;;;;;;;18.20;59.10;;;;;;5070392;28;19956;-85
2023/07/05 10:06:50;;;;;;;;;;;18.20;60.40;;;;;;5071331;28;19909;-84
2023/07/05 10:09:17;;;;;;;;;;;18.40;60.30;;;;;;5068383;28;19923;-84
2023/07/05 10:11:44;;;;;;;;;;;18.70;59.10;;;;;;5053719;28;19967;-84
2023/07/05 10:14:12;;;;;;;;;;;18.80;58.70;;;;;;5065547;28;19998;-84
2023/07/05 10:16:53;;;;;;;;;;;18.80;58.10;;;;;;5080518;28;19916;-84
2023/07/05 10:19:21;;;;;;;;;;;18.80;59.20;;;;;;5072164;28;20425;-84
2023/07/05 10:21:47;;;;;;;;;;;18.80;57.80;;;;;;5071757;28;19917;-84
2023/07/05 10:24:15;;;;;;;;;;;18.70;57.60;;;;;;5075821;28;20275;-83
2023/07/05 10:26:41;;;;;;;;;;;18.80;58.20;;;;;;5088572;28;19912;-84
2023/07/05 10:29:10;;;;;;;;;;;18.80;57.30;;;;;;5063058;28;19928;-84
2023/07/05 10:31:36;;;;;;;;;;;18.70;58.20;;;;;;5067723;28;19917;-84
2023/07/05 10:34:22;;;;;;;;;;;18.60;58.00;;;;;;5072282;28;19912;-84
2023/07/05 10:36:48;;;;;;;;;;;18.80;58.20;;;;;;5071984;28;20570;-86
2023/07/05 10:39:17;;;;;;;;;;;19.00;58.00;;;;;;5074924;28;19919;-83
2023/07/05 10:41:43;;;;;;;;;;;19.10;56.90;;;;;;5080408;28;19908;-84
2023/07/05 10:44:41;;;;;;;;;;;19.10;55.70;;;;;;5076354;28;19920;-84
2023/07/05 10:47:09;;;;;;;;;;;19.00;56.50;;;;;;5039867;28;20008;-85
2023/07/05 10:49:35;;;;;;;;;;;19.10;56.70;;;;;;5072527;28;19940;-85
2023/07/05 10:52:05;;;;;;;;;;;19.10;56.00;;;;;;5066064;28;19908;-85
2023/07/05 10:54:39;;;;;;;;;;;19.30;55.60;;;;;;5078178;28;20125;-83
2023/07/05 10:57:14;;;;;;;;;;;19.20;55.00;;;;;;5071465;28;19951;-85
2023/07/05 10:59:43;;;;;;;;;;;19.20;55.10;;;;;;5079163;28;20396;-85
2023/07/05 11:02:32;;;;;;;;;;;19.10;55.70;;;;;;5075673;28;19923;-85
2023/07/05 11:04:58;;;;;;;;;;;19.30;55.10;;;;;;5087588;28;20130;-84
2023/07/05 11:07:24;;;;;;;;;;;19.40;55.40;;;;;;5083986;28;20447;-84
2023/07/05 11:09:50;;;;;;;;;;;19.50;55.40;;;;;;5073828;28;19908;-85
2023/07/05 11:12:23;;;;;;;;;;;19.30;55.20;;;;;;5073803;28;19916;-85
2023/07/05 11:14:49;;;;;;;;;;;19.20;54.00;;;;;;5076258;28;19924;-84
2023/07/05 11:17:24;;;;;;;;;;;19.00;53.80;;;;;;5078542;28;20060;-85
2023/07/05 11:19:50;;;;;;;;;;;19.00;54.20;;;;;;5072038;28;19919;-83
2023/07/05 11:22:34;;;;;;;;;;;19.00;54.10;;;;;;5087433;28;19897;-83
2023/07/05 11:25:00;;;;;;;;;;;18.90;54.50;;;;;;5085849;28;20011;-85
2023/07/05 11:27:27;;;;;;;;;;;19.00;54.80;;;;;;5088187;28;19942;-83
2023/07/05 11:29:53;;;;;;;;;;;18.90;53.90;;;;;;5079107;28;20465;-84
2023/07/05 11:32:20;;;;;;;;;;;19.00;54.30;;;;;;5070613;28;19916;-84
2023/07/05 11:34:47;;;;;;;;;;;19.30;53.40;;;;;;5071290;28;19947;-85
2023/07/05 11:37:12;;;;;;;;;;;19.60;53.10;;;;;;5059302;28;20043;-84
2023/07/05 11:39:38;;;;;;;;;;;19.80;53.00;;;;;;5057200;28;20378;-85
2023/07/05 11:42:16;;;;;;;;;;;19.80;51.80;;;;;;5052287;28;19920;-84
2023/07/05 11:44:46;;;;;;;;;;;19.80;52.20;;;;;;5091524;28;19920;-84
2023/07/05 11:47:11;;;;;;;;;;;19.80;52.10;;;;;;5074734;28;20522;-84
2023/07/05 11:49:42;;;;;;;;;;;20.00;51.80;;;;;;5072899;28;19908;-83
2023/07/05 11:52:33;;;;;;;;;;;20.00;50.80;;;;;;5072241;28;19908;-84
2023/07/05 11:55:08;;;;;;;;;;;19.90;50.40;;;;;;5076400;28;20358;-85
2023/07/05 11:58:00;;;;;;;;;;;19.90;51.50;;;;;;5078801;28;20370;-84
2023/07/05 12:00:38;;;;;;;;;;;20.00;51.00;;;;;;5050208;28;19912;-84
2023/07/05 12:03:07;;;;;;;;;;;20.10;49.70;;;;;;5079344;28;19935;-84
2023/07/05 12:05:33;;;;;;;;;;;20.00;49.60;;;;;;5071043;28;19924;-83
2023/07/05 12:08:13;;;;;;;;;;;19.90;49.70;;;;;;5080152;28;20419;-85
2023/07/05 12:10:44;;;;;;;;;;;20.00;50.10;;;;;;5077060;28;19908;-84
2023/07/05 12:13:18;;;;;;;;;;;20.10;49.40;;;;;;5081159;28;19912;-86
2023/07/05 12:15:43;;;;;;;;;;;20.20;48.60;;;;;;5073385;28;20016;-84
2023/07/05 12:18:12;;;;;;;;;;;20.30;49.10;;;;;;5069494;28;19959;-85
2023/07/05 12:20:39;;;;;;;;;;;20.30;47.10;;;;;;5077796;28;19916;-84
2023/07/05 12:23:07;;;;;;;;;;;20.10;47.10;;;;;;5082257;28;19916;-84
2023/07/05 12:25:33;;;;;;;;;;;20.00;48.00;;;;;;5071256;28;19909;-83
2023/07/05 12:28:02;;;;;;;;;;;20.00;49.00;;;;;;5076860;28;19916;-85
2023/07/05 12:30:27;;;;;;;;;;;20.10;48.30;;;;;;5072476;28;19909;-84
2023/07/05 12:32:54;;;;;;;;;;;20.30;48.10;;;;;;5062182;28;19974;-83
2023/07/05 12:35:25;;;;;;;;;;;20.50;48.70;;;;;;5079169;28;19919;-84
2023/07/05 12:37:51;;;;;;;;;;;20.50;48.20;;;;;;5075532;28;20012;-84
2023/07/05 12:40:32;;;;;;;;;;;20.60;48.20;;;;;;5073695;28;19923;-84
2023/07/05 12:42:59;;;;;;;;;;;20.80;47.60;;;;;;5074835;28;20280;-85
2023/07/05 12:45:27;;;;;;;;;;;20.70;47.20;;;;;;5073524;28;19920;-85
2023/07/05 12:47:53;;;;;;;;;;;20.80;47.10;;;;;;5072447;28;20012;-84
2023/07/05 12:50:19;;;;;;;;;;;21.10;46.30;;;;;;5087930;28;20007;-83
2023/07/05 12:52:57;;;;;;;;;;;21.30;45.40;;;;;;5075861;28;20003;-85
2023/07/05 12:55:23;;;;;;;;;;;21.20;44.10;;;;;;5076395;28;20247;-84
2023/07/05 12:57:52;;;;;;;;;;;21.10;44.30;;;;;;5104186;28;20033;-85
2023/07/05 13:00:19;;;;;;;;;;;21.10;46.10;;;;;;5088705;28;20121;-86
2023/07/05 13:02:45;;;;;;;;;;;21.10;45.10;;;;;;5087485;28;19967;-84
2023/07/05 13:05:11;;;;;;;;;;;21.00;44.80;;;;;;5080455;28;19913;-84
2023/07/05 13:07:39;;;;;;;;;;;21.00;45.40;;;;;;5075884;28;19916;-86
2023/07/05 13:10:09;;;;;;;;;;;20.90;46.10;;;;;;5078892;28;19912;-85
2023/07/05 13:12:47;;;;;;;;;;;21.00;46.20;;;;;;5076042;28;19919;-84
2023/07/05 13:15:13;;;;;;;;;;;20.90;47.10;;;;;;5083323;28;19920;-85
2023/07/05 13:17:39;;;;;;;;;;;21.10;47.40;;;;;;5076004;28;19912;-85
2023/07/05 13:20:07;;;;;;;;;;;21.10;47.10;;;;;;5071119;28;19942;-84
2023/07/05 13:22:36;;;;;;;;;;;21.10;47.60;;;;;;5073865;28;19909;-85
2023/07/05 13:25:02;;;;;;;;;;;21.30;47.30;;;;;;5076965;28;19947;-86
2023/07/05 13:27:32;;;;;;;;;;;21.30;48.00;;;;;;5077346;28;19928;-86
2023/07/05 13:30:17;;;;;;;;;;;21.40;46.50;;;;;;5076081;28;19917;-84
2023/07/05 13:32:50;;;;;;;;;;;21.40;47.30;;;;;;5076738;28;19970;-84
2023/07/05 13:35:15;;;;;;;;;;;21.10;46.20;;;;;;5091366;28;19928;-84
2023/07/05 13:37:41;;;;;;;;;;;21.10;46.20;;;;;;5070721;28;19908;-85
2023/07/05 13:40:13;;;;;;;;;;;21.00;47.80;;;;;;5057091;28;19944;-83
2023/07/05 13:42:39;;;;;;;;;;;20.90;47.60;;;;;;5086438;28;19917;-86
2023/07/05 13:45:13;;;;;;;;;;;20.80;48.10;;;;;;5085363;28;20058;-84
2023/07/05 13:47:38;;;;;;;;;;;20.70;49.20;;;;;;5078504;28;19917;-84
2023/07/05 13:50:05;;;;;;;;;;;20.60;51.70;;;;;;5074901;28;19920;-86
2023/07/05 13:52:32;;;;;;;;;;;20.30;54.50;;;;;;5069645;28;19920;-85
2023/07/05 13:54:57;;;;;;;;;;;20.20;60.40;;;;;;5073426;28;19968;-84
2023/07/05 13:57:23;;;;;;;;;;;20.10;58.40;;;;;;5094224;28;20382;-85
2023/07/05 13:59:49;;;;;;;;;;;20.30;56.70;;;;;;5076241;28;19908;-84
2023/07/05 14:02:17;;;;;;;;;;;20.50;55.70;;;;;;5080848;28;20366;-85
2023/07/05 14:04:42;;;;;;;;;;;20.60;55.40;;;;;;5076520;28;19913;-85
2023/07/05 14:07:08;;;;;;;;;;;20.70;55.10;;;;;;5077528;28;19919;-86
2023/07/05 14:09:33;;;;;;;;;;;20.90;55.30;;;;;;5075888;28;19916;-85
2023/07/05 14:11:59;;;;;;;;;;;21.00;54.80;;;;;;5092416;28;19912;-86
2023/07/05 14:14:27;;;;;;;;;;;20.80;54.50;;;;;;5074258;28;20333;-85
2023/07/05 14:16:52;;;;;;;;;;;21.00;53.30;;;;;;5082654;28;20283;-85
2023/07/05 14:19:17;;;;;;;;;;;21.20;52.60;;;;;;5080279;28;19916;-85
2023/07/05 14:21:45;;;;;;;;;;;21.40;52.70;;;;;;5078613;28;19912;-86